Time;durP1;ratioP1;P1;durP2;ratioP2;P2;SDS_P1;SDS_P2;PMS_P1;PMS_P2;Temp;Humidity;BMP_temperature;BMP_pressure;BME280_temperature;BME280_humidity;BME280_pressure;Samples;Min_cycle;Max_cycle;Signal;HPM_P1;HPM_P2
2022/06/10 00:01:03;;;;;;;2.62;2.42;;;;;;;18.57;64.65;100855.17;1732422;81;21036;-74
2022/06/10 00:03:30;;;;;;;2.90;2.62;;;;;;;18.54;64.67;100857.47;1732047;82;21582;-75
2022/06/10 00:06:01;;;;;;;3.00;2.80;;;;;;;18.50;64.65;100858.06;1733305;81;28135;-75
2022/06/10 00:08:44;;;;;;;3.20;2.90;;;;;;;18.47;64.62;100854.73;1755092;81;21111;-74
2022/06/10 00:11:12;;;;;;;3.27;2.70;;;;;;;18.37;64.70;100864.77;1734105;81;21063;-74
2022/06/10 00:13:43;;;;;;;2.80;2.22;;;;;;;18.33;64.79;100861.89;1733272;81;21074;-74
2022/06/10 00:16:11;;;;;;;2.70;2.45;;;;;;;18.30;64.84;100863.80;1734802;82;21004;-74
2022/06/10 00:18:37;;;;;;;;;;;;;;;18.26;64.82;100858.30;1736096;82;21044;-74
2022/06/10 00:21:07;;;;;;;3.02;2.52;;;;;;;18.25;65.12;100857.91;1738963;79;20184;-74
2022/06/10 00:23:40;;;;;;;2.40;2.20;;;;;;;18.23;64.89;100859.75;1785854;79;28201;-74
2022/06/10 00:26:07;;;;;;;2.72;2.52;;;;;;;18.20;64.93;100862.89;1810513;79;21022;-74
2022/06/10 00:28:34;;;;;;;5.85;2.58;;;;;;;18.19;64.91;100861.67;1762035;80;21025;-74
2022/06/10 00:31:03;;;;;;;2.30;2.20;;;;;;;18.14;64.94;100856.64;1799813;79;21023;-74
2022/06/10 00:33:33;;;;;;;2.42;2.15;;;;;;;18.12;64.93;100856.31;1796748;79;23213;-74
2022/06/10 00:35:57;;;;;;;3.20;2.08;;;;;;;18.08;64.96;100859.98;1832189;77;20995;-74
2022/06/10 00:38:24;;;;;;;2.55;2.10;;;;;;;18.04;65.02;100870.19;1828190;77;20991;-74
2022/06/10 00:40:54;;;;;;;2.47;2.27;;;;;;;18.01;65.04;100869.86;1810760;78;21105;-74
2022/06/10 00:43:25;;;;;;;4.22;2.10;;;;;;;17.99;65.07;100868.22;1789476;79;21096;-74
2022/06/10 00:46:03;;;;;;;2.30;2.10;;;;;;;17.96;65.07;100865.28;1789595;79;21083;-74
2022/06/10 00:48:49;;;;;;;2.62;2.08;;;;;;;17.90;65.10;100861.61;1799654;79;21087;-74
2022/06/10 00:51:33;;;;;;;2.15;2.05;;;;;;;17.91;65.16;100870.31;1809747;78;21075;-74
2022/06/10 00:54:17;;;;;;;4.30;2.27;;;;;;;17.89;65.17;100874.75;1799540;79;21079;-74
2022/06/10 00:56:48;;;;;;;2.10;2.00;;;;;;;17.85;65.15;100875.34;1797992;79;21038;-74
2022/06/10 00:59:26;;;;;;;2.50;2.30;;;;;;;17.81;65.21;100875.08;1769337;79;21053;-74
2022/06/10 01:02:01;;;;;;;2.60;1.90;;;;;;;17.80;65.26;100881.22;1794517;79;21008;-74
2022/06/10 01:04:29;;;;;;;6.50;2.00;;;;;;;17.77;65.30;100878.27;1845018;77;21069;-74
2022/06/10 01:06:56;;;;;;;2.20;2.00;;;;;;;17.78;65.30;100886.97;1828574;77;21032;-74
2022/06/10 01:09:25;;;;;;;2.20;2.00;;;;;;;17.77;65.33;100886.58;1835082;77;21048;-74
2022/06/10 01:12:32;;;;;;;3.35;2.33;;;;;;;17.74;65.40;100882.78;1844746;77;21045;-74
2022/06/10 01:15:15;;;;;;;2.40;2.20;;;;;;;17.75;65.44;100887.09;1831479;77;21046;-74
2022/06/10 01:17:47;;;;;;;2.27;1.95;;;;;;;17.78;65.44;100889.59;1828846;77;21022;-74
2022/06/10 01:20:54;;;;;;;2.30;2.15;;;;;;;17.74;65.38;100891.48;1844892;77;21067;-75
2022/06/10 01:24:06;;;;;;;2.45;2.22;;;;;;;17.74;65.48;100886.25;1817813;77;21389;-74
2022/06/10 01:30:10;;;;;;;2.08;1.95;;;;;;;17.77;65.53;100905.74;1844850;77;21360;-74
2022/06/10 01:33:21;;;;;;;2.25;2.02;;;;;;;17.76;65.54;100907.96;1777267;77;21009;-74
2022/06/10 01:36:22;;;;;;;2.47;2.20;;;;;;;17.79;65.62;100913.53;1844974;77;21032;-74
2022/06/10 01:39:23;;;;;;;2.40;1.95;;;;;;;17.78;65.60;100919.22;1825116;77;21052;-74
2022/06/10 01:42:16;;;;;;;2.85;1.75;;;;;;;17.77;65.62;100922.74;1812111;79;21031;-74
2022/06/10 01:45:09;;;;;;;2.10;1.92;;;;;;;17.79;65.64;100927.45;1839234;77;21100;-74
2022/06/10 01:47:47;;;;;;;2.08;1.87;;;;;;;17.78;65.69;100934.91;1843193;77;20938;-74
2022/06/10 01:50:46;;;;;;;3.30;2.12;;;;;;;17.75;65.72;100935.48;1847373;77;20855;-74
2022/06/10 01:53:29;;;;;;;1.98;1.77;;;;;;;17.75;65.74;100934.18;1847388;77;20925;-74
2022/06/10 01:56:07;;;;;;;2.72;1.98;;;;;;;17.75;65.75;100941.57;1830517;77;20886;-74
2022/06/10 01:58:53;;;;;;;2.33;1.60;;;;;;;17.77;65.79;100948.90;1820241;77;20917;-74
2022/06/10 02:01:26;;;;;;;4.47;2.23;;;;;;;17.79;65.86;100955.37;1840186;77;20882;-74
2022/06/10 02:04:01;;;;;;;2.40;1.95;;;;;;;17.75;65.78;100959.88;1813168;77;20949;-74
2022/06/10 02:06:52;;;;;;;2.02;1.92;;;;;;;17.73;65.79;100960.86;1811584;79;21001;-75
2022/06/10 02:09:23;;;;;;;1.82;1.72;;;;;;;17.72;65.83;100967.00;1799451;77;441442;-74
2022/06/10 02:12:00;;;;;;;1.70;1.60;;;;;;;17.69;65.81;100964.05;1720928;83;21067;-74
2022/06/10 02:14:31;;;;;;;2.30;1.60;;;;;;;17.61;65.82;100963.50;1720508;81;21104;-74
2022/06/10 02:17:03;;;;;;;2.58;1.80;;;;;;;17.60;65.91;100968.79;1738547;80;21025;-74
2022/06/10 02:19:37;;;;;;;3.17;1.95;;;;;;;17.57;65.90;100971.06;1726936;81;21052;-75
2022/06/10 02:22:20;;;;;;;2.65;1.87;;;;;;;17.55;65.93;100971.58;1713344;81;21110;-75
2022/06/10 02:24:55;;;;;;;1.45;1.35;;;;;;;17.55;65.92;100974.20;1743247;81;21047;-75
2022/06/10 02:27:26;;;;;;;4.20;1.70;;;;;;;17.52;65.92;100973.01;1707372;82;20906;-75
2022/06/10 02:30:04;;;;;;;3.70;1.92;;;;;;;17.51;65.97;100978.70;1720349;83;20952;-75
2022/06/10 02:32:44;;;;;;;2.27;2.02;;;;;;;17.53;65.99;100983.86;1701578;83;21012;-75
2022/06/10 02:35:12;;;;;;;2.30;2.15;;;;;;;17.50;65.95;100976.14;1747371;81;20992;-74
2022/06/10 02:37:57;;;;;;;3.15;2.10;;;;;;;17.50;66.03;100983.98;1690779;83;21101;-74
2022/06/10 02:40:48;;;;;;;3.17;2.35;;;;;;;17.52;66.01;100987.39;1737404;81;21127;-74
2022/06/10 02:43:29;;;;;;;2.62;2.35;;;;;;;17.49;66.00;100979.66;1725601;81;20914;-74
2022/06/10 02:46:21;;;;;;;2.83;2.60;;;;;;;17.45;66.05;100987.23;1737150;81;20877;-74
2022/06/10 02:49:07;;;;;;;2.95;2.75;;;;;;;17.44;66.06;100990.30;1729203;82;20914;-74
2022/06/10 02:51:35;;;;;;;3.20;3.00;;;;;;;17.41;66.07;100990.88;1724910;81;20952;-74
2022/06/10 02:54:13;;;;;;;3.33;3.02;;;;;;;17.39;66.15;100992.23;1702504;84;20959;-74
2022/06/10 02:56:40;;;;;;;2.70;2.50;;;;;;;17.37;66.08;100998.43;1729053;82;20968;-74
2022/06/10 03:02:27;;;;;;;2.83;2.55;;;;;;;17.29;66.20;101003.95;1698587;83;20918;-74
2022/06/10 03:05:04;;;;;;;2.80;2.60;;;;;;;17.27;66.17;101016.22;1741341;81;20944;-74
2022/06/10 03:08:18;;;;;;;3.85;2.42;;;;;;;17.26;66.29;101013.20;1719798;83;20880;-74
2022/06/10 03:11:13;;;;;;;5.80;2.92;;;;;;;17.30;66.25;101018.72;1746513;81;21516;-74
2022/06/10 03:14:00;;;;;;;2.47;2.27;;;;;;;17.26;66.29;101023.66;1730078;82;20893;-74
2022/06/10 03:16:49;;;;;;;2.10;1.92;;;;;;;17.26;66.29;101022.81;1730836;81;20901;-74
2022/06/10 03:19:36;;;;;;;2.10;1.85;;;;;;;17.26;66.37;101027.58;1734458;82;20893;-74
2022/06/10 03:22:28;;;;;;;2.50;1.75;;;;;;;17.26;66.35;101035.42;1701475;83;20922;-74
2022/06/10 03:25:04;;;;;;;1.80;1.70;;;;;;;17.28;66.41;101040.59;1700933;83;20961;-75
2022/06/10 03:28:04;;;;;;;1.85;1.72;;;;;;;17.33;66.51;101036.05;1731389;81;20930;-75
2022/06/10 03:30:35;;;;;;;2.25;1.80;;;;;;;17.35;66.40;101042.08;1734254;82;20926;-74
2022/06/10 03:33:28;;;;;;;1.75;1.50;;;;;;;17.34;66.42;101049.52;1730505;82;20890;-74
2022/06/10 03:36:01;;;;;;;1.45;1.35;;;;;;;17.35;66.53;101051.23;1662107;84;20902;-74
2022/06/10 03:38:31;;;;;;;1.57;1.47;;;;;;;17.39;66.57;101058.05;1717115;82;20898;-74
2022/06/10 03:41:02;;;;;;;1.75;1.60;;;;;;;17.43;66.54;101059.19;1708288;83;20958;-74
2022/06/10 03:43:35;;;;;;;1.80;1.70;;;;;;;17.45;66.53;101063.91;1712675;82;20969;-74
2022/06/10 03:46:08;;;;;;;1.67;1.50;;;;;;;17.43;66.54;101067.03;1734722;82;20897;-74
2022/06/10 03:48:39;;;;;;;2.20;1.92;;;;;;;17.42;66.60;101070.55;1709267;83;20950;-74
2022/06/10 03:51:08;;;;;;;1.70;1.60;;;;;;;17.41;66.59;101075.84;1722642;82;20917;-74
2022/06/10 03:53:34;;;;;;;2.27;1.80;;;;;;;17.38;66.61;101082.03;1717216;83;20925;-74
2022/06/10 03:56:01;;;;;;;2.05;1.80;;;;;;;17.35;66.65;101086.52;1734717;82;25073;-74
2022/06/10 03:58:31;;;;;;;2.08;1.67;;;;;;;17.32;66.66;101090.55;1721708;82;20933;-74
2022/06/10 04:00:58;;;;;;;2.00;1.70;;;;;;;17.31;66.74;101094.07;1730962;82;21802;-74
2022/06/10 04:03:26;;;;;;;1.82;1.72;;;;;;;17.30;66.76;101097.14;1709209;82;20891;-74
2022/06/10 04:05:53;;;;;;;1.82;1.72;;;;;;;17.28;66.74;101096.80;1717790;82;20917;-74
2022/06/10 04:08:19;;;;;;;2.27;2.17;;;;;;;17.29;66.86;101101.97;1718053;82;21345;-74
2022/06/10 04:10:45;;;;;;;1.80;1.47;;;;;;;17.29;66.83;101110.27;1704192;82;20961;-74
2022/06/10 04:13:12;;;;;;;;;;;;;;;17.31;66.86;101114.98;1719531;82;20905;-74
2022/06/10 04:15:39;;;;;;;1.77;1.67;;;;;;;17.30;67.00;101120.66;1708853;82;20162;-75
2022/06/10 04:18:05;;;;;;;;;;;;;;;17.27;66.87;101121.23;1731885;80;20935;-74
2022/06/10 04:20:40;;;;;;;2.08;1.90;;;;;;;17.23;67.09;101129.63;1687236;83;20153;-74
2022/06/10 04:23:07;;;;;;;2.55;2.10;;;;;;;17.27;66.98;101135.60;1730705;81;20960;-76
2022/06/10 04:25:36;;;;;;;3.47;2.83;;;;;;;17.30;67.02;101128.50;1735556;81;20944;-76
2022/06/10 04:28:04;;;;;;;3.42;2.85;;;;;;;17.34;67.01;101138.40;1703005;83;20957;-76
2022/06/10 04:30:38;;;;;;;4.22;3.17;;;;;;;17.39;67.09;101144.31;1749439;80;20932;-75
2022/06/10 04:33:06;;;;;;;7.40;3.65;;;;;;;17.43;67.06;101146.77;1732901;81;20924;-76
2022/06/10 04:35:41;;;;;;;3.92;3.47;;;;;;;17.48;67.08;101146.61;1749694;81;20858;-76
2022/06/10 04:38:09;;;;;;;3.67;3.25;;;;;;;17.47;67.11;101154.91;1755384;80;20945;-76
2022/06/10 04:40:37;;;;;;;3.60;3.30;;;;;;;17.46;67.05;101161.04;1709912;83;20951;-76
2022/06/10 04:43:06;;;;;;;4.70;3.47;;;;;;;17.46;67.16;101162.34;1759800;80;20956;-76
2022/06/10 04:45:40;;;;;;;3.87;3.58;;;;;;;17.46;67.08;101164.11;1699414;82;20918;-76
2022/06/10 04:48:07;;;;;;;3.92;3.62;;;;;;;17.46;67.22;101172.80;1731253;81;20942;-76
2022/06/10 04:50:34;;;;;;;5.20;4.10;;;;;;;17.49;67.24;101172.70;1733338;80;20878;-76
2022/06/10 04:53:02;;;;;;;4.35;3.85;;;;;;;17.51;67.24;101170.03;1715641;83;20918;-75
2022/06/10 04:55:28;;;;;;;5.15;3.60;;;;;;;17.54;67.36;101173.39;1752226;80;21043;-75
2022/06/10 04:57:56;;;;;;;4.22;3.83;;;;;;;17.65;67.46;101173.03;1718320;82;21391;-75
2022/06/10 05:00:27;;;;;;;4.72;4.33;;;;;;;17.83;67.48;101180.18;1752572;80;20857;-75
2022/06/10 05:02:54;;;;;;;4.45;3.80;;;;;;;18.07;67.39;101184.10;1701205;82;20952;-76
2022/06/10 05:05:21;;;;;;;5.40;4.40;;;;;;;18.12;67.37;101192.18;1747968;80;20929;-77
2022/06/10 05:07:48;;;;;;;5.12;4.53;;;;;;;18.16;67.33;101198.16;1729115;80;21422;-77
2022/06/10 05:10:17;;;;;;;5.50;4.92;;;;;;;18.13;67.28;101192.58;1733573;80;20860;-76
2022/06/10 05:12:46;;;;;;;4.55;4.15;;;;;;;18.07;67.36;101201.11;1744223;80;21351;-76
2022/06/10 05:15:15;;;;;;;5.17;4.47;;;;;;;18.07;67.43;101213.75;1733966;80;21007;-76
2022/06/10 05:17:42;;;;;;;7.58;4.50;;;;;;;18.07;67.39;101209.81;1717945;82;21351;-76
2022/06/10 05:20:12;;;;;;;;;;;;;;;18.01;67.40;101210.05;1723561;82;20945;-76
2022/06/10 05:22:38;;;;;;;6.33;4.30;;;;;;;17.98;67.43;101210.62;1732575;82;20125;-76
2022/06/10 05:25:06;;;;;;;4.12;3.72;;;;;;;17.91;67.40;101212.61;1728922;82;20909;-76
2022/06/10 05:27:34;;;;;;;4.67;4.28;;;;;;;17.88;67.44;101214.48;1726722;81;20909;-78
2022/06/10 05:30:00;;;;;;;4.85;4.08;;;;;;;17.87;67.51;101216.24;1712152;82;21392;-77
2022/06/10 05:32:26;;;;;;;5.62;4.40;;;;;;;17.88;67.54;101214.02;1703776;84;21403;-77
2022/06/10 05:34:54;;;;;;;4.35;3.95;;;;;;;17.89;67.48;101222.27;1726420;82;20930;-78
2022/06/10 05:37:24;;;;;;;4.08;3.70;;;;;;;17.86;67.52;101220.62;1734240;82;20927;-77
2022/06/10 05:39:52;;;;;;;4.10;3.80;;;;;;;17.89;67.61;101224.03;1734435;82;20903;-77
2022/06/10 05:42:19;;;;;;;4.00;3.60;;;;;;;17.94;67.52;101228.19;1718171;82;20866;-77
2022/06/10 05:44:49;;;;;;;4.17;3.87;;;;;;;17.92;67.56;101234.39;1699492;83;20923;-76
2022/06/10 05:47:23;;;;;;;3.95;3.55;;;;;;;17.97;67.59;101227.23;1722484;82;20893;-76
2022/06/10 05:49:55;;;;;;;4.47;3.75;;;;;;;18.03;67.54;101233.55;1703279;83;20902;-76
2022/06/10 05:52:25;;;;;;;4.60;4.20;;;;;;;18.06;67.55;101234.74;1720912;82;21794;-76
2022/06/10 05:54:54;;;;;;;4.20;3.62;;;;;;;18.07;67.50;101241.68;1724268;82;20841;-76
2022/06/10 05:57:21;;;;;;;4.22;3.90;;;;;;;18.09;67.58;101237.25;1717922;82;21420;-76
2022/06/10 05:59:49;;;;;;;4.30;3.65;;;;;;;18.11;67.58;101244.13;1720315;82;21007;-76
2022/06/10 06:02:16;;;;;;;4.05;3.60;;;;;;;18.23;67.60;101243.24;1714920;82;20915;-76
2022/06/10 06:04:46;;;;;;;3.60;3.30;;;;;;;18.33;67.60;101244.60;1729690;81;20898;-76
2022/06/10 06:07:25;;;;;;;3.75;3.45;;;;;;;18.60;67.69;101253.17;1724058;82;20862;-75
2022/06/10 06:09:53;;;;;;;3.17;2.87;;;;;;;18.83;67.62;101247.88;1715748;82;21442;-76
2022/06/10 06:12:21;;;;;;;4.90;2.80;;;;;;;19.34;67.81;101253.19;1713201;82;21426;-74
2022/06/10 06:14:48;;;;;;;2.77;2.58;;;;;;;19.94;67.83;101249.69;1725889;82;20921;-75
2022/06/10 06:17:19;;;;;;;2.90;2.55;;;;;;;20.78;67.81;101252.36;1711235;81;21478;-71
2022/06/10 06:19:49;;;;;;;2.92;2.47;;;;;;;21.41;67.46;101250.08;1746886;80;21736;-70
2022/06/10 06:22:15;;;;;;;;;;;;;;;22.08;67.40;101251.83;1730312;82;20908;-71
2022/06/10 06:24:42;;;;;;;;;;;;;;;22.34;66.45;101261.81;1730810;81;20118;-75
2022/06/10 06:27:14;;;;;;;2.92;2.65;;;;;;;22.39;66.10;101265.48;1748975;80;20131;-82
2022/06/10 06:29:41;;;;;;;3.83;2.72;;;;;;;22.23;66.50;101269.45;1734175;81;21354;-76
2022/06/10 06:32:08;;;;;;;6.65;2.50;;;;;;;21.99;66.55;101275.52;1727841;81;21829;-82
2022/06/10 06:34:34;;;;;;;;;;;;;;;22.00;66.66;101275.91;1705967;82;22095;-78
2022/06/10 06:37:01;;;;;;;2.40;2.27;;;;;;;21.93;66.09;101275.84;1727498;81;20522;-78
2022/06/10 06:39:28;;;;;;;;;;;;;;;21.78;66.31;101272.27;1745023;80;21437;-77
2022/06/10 06:41:55;;;;;;;2.60;2.40;;;;;;;21.75;65.83;101276.38;1713658;82;20720;-77
2022/06/10 06:44:21;;;;;;;3.45;2.60;;;;;;;21.82;65.80;101278.69;1735407;80;20905;-77
2022/06/10 06:46:48;;;;;;;2.62;2.30;;;;;;;22.00;65.91;101282.95;1750937;80;21527;-77
2022/06/10 06:49:23;;;;;;;3.60;2.35;;;;;;;22.25;65.85;101281.22;1748489;80;21417;-77
2022/06/10 06:51:50;;;;;;;3.20;2.62;;;;;;;22.68;65.91;101283.17;1754098;80;21386;-78
2022/06/10 06:54:17;;;;;;;2.77;2.33;;;;;;;23.10;65.71;101290.45;1743186;81;21334;-78
2022/06/10 06:56:43;;;;;;;;;;;;;;;23.23;65.27;101284.00;1741616;80;20952;-78
2022/06/10 06:59:10;;;;;;;2.95;1.85;;;;;;;23.61;64.66;101292.78;1747381;80;20215;-78
2022/06/10 07:01:36;;;;;;;2.62;1.87;;;;;;;24.30;65.59;101288.97;1748642;80;25704;-78
2022/06/10 07:04:04;;;;;;;2.80;2.00;;;;;;;25.19;64.37;101294.66;1735044;80;20968;-77
2022/06/10 07:06:35;;;;;;;1.47;1.32;;;;;;;25.74;63.57;101285.64;1738175;80;20884;-76
2022/06/10 07:09:03;;;;;;;1.67;1.57;;;;;;;26.24;64.69;101283.41;1709560;82;21410;-73
2022/06/10 07:11:31;;;;;;;3.45;1.50;;;;;;;26.86;64.07;101291.30;1721184;81;20944;-73
2022/06/10 07:13:58;;;;;;;1.57;1.47;;;;;;;27.34;64.05;101293.45;1717924;82;21843;-73
2022/06/10 07:16:24;;;;;;;3.22;1.25;;;;;;;27.60;63.21;101299.44;1757242;80;23092;-73
2022/06/10 07:18:54;;;;;;;2.02;1.30;;;;;;;27.39;61.72;101293.09;1708051;82;20957;-73
2022/06/10 07:21:27;;;;;;;1.52;1.30;;;;;;;26.98;61.49;101301.53;1714957;82;21423;-73
2022/06/10 07:23:54;;;;;;;3.42;1.57;;;;;;;26.53;60.66;101298.57;1712838;82;20898;-73
2022/06/10 07:26:20;;;;;;;1.98;1.45;;;;;;;26.36;60.57;101304.27;1686416;83;21429;-73
2022/06/10 07:28:47;;;;;;;1.50;1.40;;;;;;;26.16;59.98;101305.64;1690370;82;21486;-73
2022/06/10 07:31:13;;;;;;;1.72;1.32;;;;;;;25.99;59.74;101302.02;1734750;81;20920;-73
2022/06/10 07:33:39;;;;;;;2.05;1.30;;;;;;;25.97;59.42;101303.45;1729483;81;21414;-73
2022/06/10 07:36:15;;;;;;;1.82;1.40;;;;;;;26.10;59.14;101302.09;1722022;81;21003;-73
2022/06/10 07:38:41;;;;;;;1.95;1.77;;;;;;;26.43;59.16;101314.81;1732347;81;21215;-74
2022/06/10 07:43:52;;;;;;;1.67;1.45;;;;;;;26.52;58.05;101314.59;1739340;81;20598;-75
2022/06/10 07:46:21;;;;;;;1.47;1.37;;;;;;;26.66;57.39;101315.78;1738574;80;21389;-75
2022/06/10 07:48:49;;;;;;;4.53;1.40;;;;;;;26.68;57.87;101315.20;1743691;80;20904;-74
2022/06/10 07:51:16;;;;;;;2.12;1.30;;;;;;;26.71;57.21;101320.28;1746197;81;21528;-74
2022/06/10 07:53:44;;;;;;;2.15;1.25;;;;;;;26.55;56.96;101317.03;1743547;80;20940;-74
2022/06/10 07:56:13;;;;;;;2.08;1.20;;;;;;;26.55;57.00;101322.34;1734577;81;20909;-74
2022/06/10 07:58:40;;;;;;;1.22;1.12;;;;;;;26.64;56.67;101326.98;1741451;81;21413;-74
2022/06/10 08:01:06;;;;;;;;;;;;;;;26.77;56.57;101321.16;1740369;81;20893;-74
2022/06/10 08:03:32;;;;;;;1.30;0.95;;;;;;;26.83;55.69;101324.70;1741138;81;20567;-74
2022/06/10 08:05:59;;;;;;;2.25;1.17;;;;;;;26.55;55.97;101323.66;1705028;83;20910;-74
2022/06/10 08:08:26;;;;;;;1.07;0.93;;;;;;;26.41;55.84;101327.81;1729169;81;20857;-74
2022/06/10 08:10:52;;;;;;;1.62;0.95;;;;;;;26.18;55.46;101334.22;1746728;81;20885;-74
2022/06/10 08:13:19;;;;;;;1.72;1.42;;;;;;;26.24;55.48;101328.48;1741081;80;20937;-74
2022/06/10 08:15:46;;;;;;;;;;;;;;;26.40;55.08;101325.63;1718397;82;20906;-74
2022/06/10 08:18:17;;;;;;;1.92;1.32;;;;;;;26.48;54.40;101322.44;1707251;82;20206;-74
2022/06/10 08:23:32;;;;;;;1.17;0.93;;;;;;;26.18;54.63;101332.05;1745180;80;21087;-74
2022/06/10 08:26:00;;;;;;;1.65;1.17;;;;;;;26.12;54.47;101335.97;1713390;83;21116;-74
2022/06/10 08:28:28;;;;;;;2.72;1.20;;;;;;;26.26;54.35;101333.68;1744846;80;21615;-74
2022/06/10 08:30:56;;;;;;;2.22;1.15;;;;;;;26.42;54.14;101331.68;1711501;82;21034;-74
2022/06/10 08:33:22;;;;;;;3.72;1.47;;;;;;;26.54;53.84;101336.08;1733907;81;29148;-74
2022/06/10 08:35:48;;;;;;;2.20;1.00;;;;;;;26.49;53.51;101334.74;1746202;80;21047;-74
2022/06/10 08:38:18;;;;;;;1.35;1.10;;;;;;;26.49;53.51;101334.74;1754730;80;21038;-74
2022/06/10 08:40:59;;;;;;;3.42;1.25;;;;;;;26.30;52.96;101338.66;1713479;83;21057;-74
2022/06/10 08:44:05;;;;;;;0.98;0.90;;;;;;;26.12;52.81;101339.94;1703483;82;21064;-74
2022/06/10 08:47:13;;;;;;;1.20;1.10;;;;;;;26.05;52.61;101344.82;1751013;80;27180;-74
2022/06/10 08:50:20;;;;;;;4.22;1.40;;;;;;;25.77;52.30;101338.89;1708318;83;21008;-74
2022/06/10 08:53:04;;;;;;;2.00;1.30;;;;;;;25.44;52.34;101345.98;1747944;80;21064;-73
2022/06/10 08:56:01;;;;;;;1.60;1.00;;;;;;;25.37;52.37;101345.06;1702708;83;21064;-73
2022/06/10 08:58:41;;;;;;;12.28;1.75;;;;;;;25.38;52.00;101349.41;1727548;81;21092;-73
2022/06/10 09:01:16;;;;;;;1.02;0.93;;;;;;;25.20;51.57;101355.06;1739475;80;20924;-74
2022/06/10 09:03:54;;;;;;;0.98;0.80;;;;;;;25.08;51.73;101352.27;1730455;81;21424;-74
2022/06/10 09:06:30;;;;;;;2.92;0.80;;;;;;;25.19;51.63;101348.92;1751023;80;20868;-74
2022/06/10 09:09:02;;;;;;;1.10;0.98;;;;;;;25.25;51.57;101352.48;1728301;80;20905;-74
2022/06/10 09:11:59;;;;;;;0.82;0.82;;;;;;;25.16;51.41;101361.50;1698819;82;20992;-74
2022/06/10 09:14:27;;;;;;;4.05;1.32;;;;;;;25.01;51.35;101368.64;1733137;81;21516;-74
2022/06/10 09:17:13;;;;;;;1.95;1.20;;;;;;;24.97;51.54;101369.30;1743187;80;20944;-74
2022/06/10 09:19:53;;;;;;;2.52;1.22;;;;;;;24.94;51.10;101366.00;1729508;82;20940;-74
2022/06/10 09:22:42;;;;;;;2.10;0.93;;;;;;;24.59;50.79;101371.72;1721922;80;20884;-74
2022/06/10 09:25:23;;;;;;;1.57;0.90;;;;;;;24.48;51.01;101375.98;1749044;80;20897;-74
2022/06/10 09:27:59;;;;;;;2.62;0.80;;;;;;;24.37;50.63;101371.39;1743383;80;20901;-74
2022/06/10 09:30:34;;;;;;;2.52;0.60;;;;;;;24.16;50.76;101376.15;1747009;80;20947;-74
2022/06/10 09:33:38;;;;;;;0.95;0.82;;;;;;;24.00;50.48;101377.55;1755717;80;20912;-74
2022/06/10 09:36:31;;;;;;;2.20;1.22;;;;;;;23.72;50.44;101355.06;1751594;80;21377;-74
2022/06/10 09:42:48;;;;;;;1.85;1.05;;;;;;;23.56;50.00;101378.87;1727049;80;20932;-74
2022/06/10 09:45:26;;;;;;;1.17;0.82;;;;;;;23.26;50.30;101377.51;1731553;80;20915;-74
2022/06/10 09:48:32;;;;;;;1.17;1.00;;;;;;;23.10;50.15;101382.80;1735076;80;20951;-74
2022/06/10 09:51:28;;;;;;;1.20;1.07;;;;;;;22.96;50.13;101379.22;1730665;80;20932;-74
2022/06/10 09:54:17;;;;;;;1.25;0.68;;;;;;;22.81;50.18;101391.50;1743326;80;21326;-74
2022/06/10 09:57:08;;;;;;;2.05;0.78;;;;;;;22.76;50.29;101389.08;1735893;80;20944;-74
2022/06/10 09:59:46;;;;;;;0.95;0.85;;;;;;;22.80;50.18;101383.20;1741568;80;20896;-74
2022/06/10 10:02:54;;;;;;;0.78;0.78;;;;;;;22.86;50.25;101389.45;1753562;80;21237;-74
2022/06/10 10:05:52;;;;;;;1.10;1.00;;;;;;;22.94;50.06;101391.64;1748828;80;21043;-74
2022/06/10 10:08:26;;;;;;;1.00;0.90;;;;;;;22.64;49.98;101392.84;1743411;80;21023;-74
2022/06/10 10:11:12;;;;;;;1.62;1.20;;;;;;;22.72;50.27;101388.86;1750221;80;21439;-74
2022/06/10 10:14:17;;;;;;;1.20;0.90;;;;;;;22.80;50.20;101391.58;1744630;81;21031;-74
2022/06/10 10:17:20;;;;;;;1.05;0.50;;;;;;;22.85;50.25;101390.86;1739897;80;21036;-74
2022/06/10 10:20:21;;;;;;;1.40;0.72;;;;;;;22.83;50.04;101388.78;1718497;82;21027;-74
2022/06/10 10:23:02;;;;;;;0.65;0.60;;;;;;;22.82;50.20;101387.07;1710138;82;21595;-74
2022/06/10 10:25:32;;;;;;;0.82;0.68;;;;;;;22.83;50.13;101385.67;1718313;82;21040;-74
2022/06/10 10:27:59;;;;;;;1.05;0.70;;;;;;;22.78;49.96;101389.87;1715667;82;21108;-74
2022/06/10 10:30:42;;;;;;;4.30;0.88;;;;;;;22.66;49.94;101387.02;1720621;82;20944;-74
2022/06/10 10:33:16;;;;;;;5.70;0.95;;;;;;;22.57;49.95;101389.68;1723122;82;21052;-74
2022/06/10 10:35:51;;;;;;;1.20;0.80;;;;;;;22.38;48.89;101392.91;1716166;82;21036;-74
2022/06/10 10:38:41;;;;;;;0.78;0.65;;;;;;;22.08;49.28;101394.92;1720760;82;21002;-74
2022/06/10 10:41:37;;;;;;;1.07;0.70;;;;;;;21.88;49.56;101392.87;1708981;82;21507;-75
2022/06/10 10:44:41;;;;;;;2.83;0.70;;;;;;;21.91;49.61;101399.30;1713802;82;21071;-74
2022/06/10 10:47:15;;;;;;;1.47;0.90;;;;;;;21.89;49.73;101394.58;1718850;82;20945;-74
2022/06/10 10:50:01;;;;;;;1.30;0.75;;;;;;;21.90;49.34;101394.97;1696916;82;20902;-74
2022/06/10 10:52:41;;;;;;;4.67;0.80;;;;;;;21.86;49.85;101386.83;1716180;82;20981;-74
2022/06/10 10:55:15;;;;;;;1.10;0.60;;;;;;;21.90;49.79;101392.33;1703225;82;21100;-74
2022/06/10 10:57:46;;;;;;;3.15;0.78;;;;;;;22.02;49.91;101382.52;1710496;82;20954;-74
2022/06/10 11:00:18;;;;;;;3.17;0.72;;;;;;;22.02;49.84;101393.06;1727308;82;20853;-74
2022/06/10 11:03:02;;;;;;;1.27;0.85;;;;;;;22.04;49.85;101389.42;1702406;82;21081;-74
2022/06/10 11:05:48;;;;;;;2.25;1.07;;;;;;;22.10;49.98;101389.57;1707075;82;21491;-74
2022/06/10 11:08:30;;;;;;;1.33;0.70;;;;;;;22.14;49.94;101384.53;1702370;83;21444;-74
2022/06/10 11:11:23;;;;;;;2.00;1.10;;;;;;;22.20;50.00;101389.48;1718591;82;20933;-74
2022/06/10 11:14:00;;;;;;;2.37;1.40;;;;;;;22.35;50.10;101387.36;1697490;83;20936;-74
2022/06/10 11:16:36;;;;;;;;;;;;;;;22.44;50.03;101392.12;1688781;83;20957;-74
2022/06/10 11:19:20;;;;;;;1.20;1.10;;;;;;;22.48;49.89;101390.17;1714215;81;20094;-74
2022/06/10 11:22:12;;;;;;;1.55;0.98;;;;;;;22.41;49.97;101400.65;1722244;81;20980;-74
2022/06/10 11:24:43;;;;;;;1.35;1.00;;;;;;;22.37;49.96;101400.43;1730307;81;20969;-74
2022/06/10 11:27:31;;;;;;;4.40;1.15;;;;;;;22.38;49.99;101393.76;1742951;80;20877;-74
2022/06/10 11:30:14;;;;;;;1.80;0.93;;;;;;;22.44;50.01;101392.58;1748624;80;20892;-74
2022/06/10 11:33:07;;;;;;;1.80;1.00;;;;;;;22.45;49.89;101389.02;1747896;81;21050;-78
2022/06/10 11:35:41;;;;;;;1.45;1.00;;;;;;;22.45;49.80;101388.55;1749000;81;20952;-78
2022/06/10 11:38:29;;;;;;;3.60;1.30;;;;;;;22.44;49.69;101403.13;1735073;81;21262;-78
2022/06/10 11:41:24;;;;;;;4.20;1.40;;;;;;;22.44;49.66;101390.80;1747505;80;21102;-78
2022/06/10 11:44:05;;;;;;;1.57;1.25;;;;;;;22.40;49.46;101405.07;1746806;80;20896;-78
2022/06/10 11:46:40;;;;;;;1.70;1.20;;;;;;;22.51;49.80;101385.20;1750995;80;20972;-78
2022/06/10 11:49:14;;;;;;;1.52;1.42;;;;;;;22.63;49.72;101393.31;1749213;80;21039;-78
2022/06/10 11:51:54;;;;;;;2.65;1.70;;;;;;;22.48;49.21;101390.64;1749227;80;21094;-78
2022/06/10 11:54:35;;;;;;;1.60;1.12;;;;;;;22.42;49.61;101389.17;1736198;80;21051;-78
2022/06/10 12:00:27;;;;;;;2.35;1.20;;;;;;;22.43;49.07;101394.37;1747380;80;21125;-77
2022/06/10 12:03:38;;;;;;;2.65;1.27;;;;;;;22.34;48.50;101392.25;1756148;80;20944;-78
2022/06/10 12:06:19;;;;;;;2.08;1.00;;;;;;;22.33;49.21;101394.50;1735288;80;20936;-78
2022/06/10 12:09:11;;;;;;;1.25;1.00;;;;;;;22.37;48.87;101395.16;1749454;80;20924;-78
2022/06/10 12:12:05;;;;;;;1.42;0.82;;;;;;;22.37;48.89;101396.47;1742015;80;20928;-79
2022/06/10 12:14:41;;;;;;;;;;;;;;;22.36;48.66;101401.36;1740828;80;20984;-78
2022/06/10 12:17:34;;;;;;;1.50;0.80;;;;;;;22.41;48.97;101393.59;1750430;80;20129;-79
2022/06/10 12:20:36;;;;;;;0.98;0.85;;;;;;;22.47;48.97;101396.37;1736823;80;20888;-77
2022/06/10 12:23:27;;;;;;;1.30;1.10;;;;;;;22.62;48.52;101399.52;1747512;80;20912;-77
2022/06/10 12:26:01;;;;;;;7.08;1.12;;;;;;;22.64;48.78;101402.07;1750730;80;20845;-77
2022/06/10 12:28:45;;;;;;;1.05;0.88;;;;;;;22.64;48.75;101397.64;1750805;80;20943;-77
2022/06/10 12:31:34;;;;;;;3.90;1.10;;;;;;;22.69;48.80;101390.81;1749704;80;20963;-77